Meteo Giornale » Osservazioni meteo Stati Uniti (USA) » Bakersfield Meadows Fld
ore: 21:54 - Osservazioni Meteo Bakersfield Meadows Fld
Lat. 35° 26' N Lon. 119° 3' W Alt. 155 metri s.l.m.
25 °C
Sereno
Temp. 24 Ore
19 °C
34 °C
Nord
18.5 Km/h
Dew point 4 °C
Umidità 25 %
Visibilità 10 Km
Il sole sorge alle ore 06:28
Il sole tramonta alle ore 19:24
| Data e Ora | Cielo e Fenomeni | T °C | DP °C | Um. % | Pres. hPa | Vis. km | Vento km/h | |
|---|---|---|---|---|---|---|---|---|
| Oggi h: 21:54 | Sereno | 25 | 4 | 25 | 1010 | 10 | N 18.5 | |
| Oggi h: 20:54 | Sereno | 25 | 5 | 27 | 1010 | 10 | N/NO 14.8 | |
| Oggi h: 19:54 | Sereno | 27 | 5 | 24 | 1009 | 10 | N/NO 20.3 | |
| Oggi h: 18:54 | Sereno | 31 | 7 | 22 | 1008 | 10 | NO 18.5 | |
| Oggi h: 17:54 | Sereno | 34 | 4 | 15 | 1008 | 10 | NO 20.3 | |
| Oggi h: 16:54 | Sereno | 34 | 6 | 17 | 1008 | 10 | N/NO 24 | |
| Oggi h: 15:54 | Sereno | 34 | 6 | 17 | 1008 | 10 | N/NO 20.3 | |
| Oggi h: 14:54 | Sereno | 34 | 4 | 15 | 1009 | 10 | O/NO 24 | |
| Oggi h: 13:54 | Sereno | 33 | 6 | 18 | 1010 | 10 | O/NO 18.5 | |
| Oggi h: 12:54 | Sereno | 32 | 8 | 22 | 1011 | 10 | NO 14.8 | |
| Oggi h: 11:54 | Sereno | 30 | 8 | 25 | 1011 | 10 | O/NO 9.3 | |
| Oggi h: 10:54 | Sereno | 28 | 9 | 30 | 1012 | 10 | O 9.3 | |
| Oggi h: 09:54 | Sereno | 26 | 8 | 31 | 1012 | 10 | N 5.5 | |
| Oggi h: 08:54 | Sereno | 24 | 7 | 33 | 1012 | 10 | N 5.5 | |
| Oggi h: 07:54 | Sereno | 22 | 6 | 35 | 1012 | 10 | N 0 | |
| Oggi h: 06:54 | Sereno | 19 | 4 | 37 | 1011 | 14 | N 5.5 | |
| Oggi h: 05:54 | Sereno | 21 | 4 | 32 | 1011 | 10 | N 0 | |
| Oggi h: 04:54 | Sereno | 22 | 4 | 30 | 1010 | 10 | N 0 | |
| Oggi h: 03:54 | Sereno | 22 | 3 | 28 | 1011 | 10 | NE 7.4 | |
| Oggi h: 02:54 | Poco Nuvoloso | 23 | 3 | 26 | 1010 | 10 | N 9.3 | |
| Oggi h: 01:54 | Sereno | 22 | 2 | 26 | 1010 | 10 | N/NO 11.1 | |
| Oggi h: 00:54 | Sereno | 23 | 1 | 23 | 1010 | 10 | N/NO 11.1 | |
| Ieri h: 23:54 | Sereno | 24 | 2 | 23 | 1010 | 10 | N 5.5 | |
| Ieri h: 22:54 | Sereno | 27 | 2 | 19 | 1010 | 10 | N 14.8 | |



